createdAt,value
2017-09-18T00:01:23.036Z,12.46
2017-09-18T00:03:51.181Z,12.28
2017-09-18T00:06:18.681Z,12.18
2017-09-18T00:08:46.261Z,12.32
2017-09-18T00:11:16.252Z,12.41
2017-09-18T00:13:43.774Z,12.03
2017-09-18T00:16:13.221Z,12.33
2017-09-18T00:18:49.952Z,12.41
2017-09-18T00:21:21.924Z,12.49
2017-09-18T00:23:50.784Z,12.56
2017-09-18T00:26:30.243Z,12.62
2017-09-18T00:29:10.705Z,12.73
2017-09-18T00:34:20.136Z,12.78
2017-09-18T00:36:47.600Z,12.83
2017-09-18T00:39:15.096Z,12.81
2017-09-18T00:41:42.664Z,12.91
2017-09-18T00:44:10.200Z,12.96
2017-09-18T00:46:37.691Z,13.05
2017-09-18T00:49:05.200Z,13.05
2017-09-18T00:51:32.708Z,13.04
2017-09-18T00:54:00.189Z,12.99
2017-09-18T00:56:28.769Z,12.84
2017-09-18T00:58:56.246Z,12.78
2017-09-18T01:01:23.704Z,12.70
2017-09-18T01:03:51.211Z,12.74
2017-09-18T01:06:18.692Z,12.69
2017-09-18T01:08:46.233Z,12.70
2017-09-18T01:11:13.736Z,12.65
2017-09-18T01:13:41.239Z,12.60
2017-09-18T01:16:08.749Z,12.59
2017-09-18T01:18:36.546Z,12.47
2017-09-18T01:21:04.463Z,12.59
2017-09-18T01:23:32.052Z,12.62
2017-09-18T01:26:07.341Z,12.29
2017-09-18T01:28:34.809Z,12.47
2017-09-18T01:31:02.299Z,12.65
2017-09-18T01:33:29.820Z,12.67
2017-09-18T01:35:58.024Z,12.75
2017-09-18T01:38:25.521Z,12.69
2017-09-18T01:40:52.996Z,12.81
2017-09-18T01:43:20.529Z,12.78
2017-09-18T01:45:48.250Z,12.81
2017-09-18T01:48:15.757Z,12.92
2017-09-18T01:50:43.210Z,13.00
2017-09-18T01:53:10.706Z,13.07
2017-09-18T01:55:38.159Z,12.96
2017-09-18T01:58:06.808Z,13.10
2017-09-18T02:00:34.296Z,13.10
2017-09-18T02:03:02.318Z,13.07
2017-09-18T02:05:29.824Z,13.13
2017-09-18T02:07:57.631Z,13.11
2017-09-18T02:10:25.180Z,13.15
2017-09-18T02:12:52.656Z,12.94
2017-09-18T02:15:20.112Z,13.04
2017-09-18T02:17:47.600Z,13.07
2017-09-18T02:20:15.086Z,13.09
2017-09-18T02:22:42.670Z,13.11
2017-09-18T02:25:10.214Z,13.02
2017-09-18T02:27:37.835Z,13.08
2017-09-18T02:30:05.324Z,13.15
2017-09-18T02:32:32.779Z,13.11
2017-09-18T02:35:00.305Z,13.11
2017-09-18T02:37:27.974Z,13.16
2017-09-18T02:39:57.217Z,13.10
2017-09-18T02:42:24.732Z,13.06
2017-09-18T02:44:52.208Z,12.80
2017-09-18T02:47:19.692Z,12.39
2017-09-18T02:49:47.161Z,12.66
2017-09-18T02:52:14.661Z,12.67
2017-09-18T02:54:42.121Z,12.77
2017-09-18T02:57:09.606Z,12.34
2017-09-18T02:59:37.081Z,12.55
2017-09-18T03:02:04.556Z,12.69
2017-09-18T03:04:32.223Z,12.69
2017-09-18T03:09:44.966Z,12.71
2017-09-18T03:12:12.791Z,12.67
2017-09-18T03:17:51.683Z,12.47
2017-09-18T03:20:21.342Z,12.41
2017-09-18T03:22:48.853Z,12.49
2017-09-18T03:25:16.323Z,12.45
2017-09-18T03:27:44.169Z,12.56
2017-09-18T03:30:11.777Z,12.60
2017-09-18T03:32:39.255Z,12.50
2017-09-18T03:35:06.729Z,12.32
2017-09-18T03:37:34.249Z,12.44
2017-09-18T03:40:07.640Z,12.37
2017-09-18T03:42:35.213Z,12.45
2017-09-18T03:45:03.025Z,12.52
2017-09-18T03:47:31.220Z,12.57
2017-09-18T03:49:58.745Z,12.46
2017-09-18T03:52:26.250Z,12.57
2017-09-18T03:54:59.973Z,12.57
2017-09-18T03:57:31.674Z,12.48
2017-09-18T04:00:00.466Z,12.63
2017-09-18T04:02:27.981Z,12.68
2017-09-18T04:05:07.239Z,12.19
2017-09-18T04:07:35.001Z,12.27
2017-09-18T04:10:02.535Z,12.52
2017-09-18T14:25:31.629Z,19.35
2017-09-18T14:27:59.280Z,19.44
2017-09-18T14:30:26.770Z,19.63
2017-09-18T14:32:54.269Z,19.52
2017-09-18T14:35:21.903Z,19.19
2017-09-18T14:37:50.155Z,19.16
2017-09-18T14:40:17.616Z,19.31
2017-09-18T14:42:45.199Z,19.31
2017-09-18T14:45:12.696Z,19.45
2017-09-18T14:47:40.308Z,19.32
2017-09-18T14:50:07.818Z,19.29
2017-09-18T14:52:35.459Z,19.29
2017-09-18T14:55:02.916Z,19.27
2017-09-18T14:57:30.688Z,19.27
2017-09-18T14:59:58.436Z,19.09
2017-09-18T15:02:26.296Z,19.04
2017-09-18T15:04:54.402Z,19.18
2017-09-18T15:07:21.892Z,18.87
2017-09-18T15:09:49.617Z,19.14
2017-09-18T15:12:17.380Z,19.05
2017-09-18T15:14:44.976Z,19.05
2017-09-18T15:17:12.670Z,19.16
2017-09-18T15:19:40.195Z,19.25
2017-09-18T15:22:07.817Z,19.28
2017-09-18T15:24:35.315Z,19.10
2017-09-18T15:27:02.801Z,19.09
2017-09-18T15:29:30.282Z,19.17
2017-09-18T15:31:57.903Z,19.06
2017-09-18T15:34:25.594Z,18.96
2017-09-18T15:36:53.101Z,18.57
2017-09-18T15:39:20.576Z,18.58
2017-09-18T15:41:48.086Z,18.68
2017-09-18T15:44:15.837Z,18.51
2017-09-18T15:46:43.312Z,17.88
2017-09-18T15:49:11.801Z,17.98
2017-09-18T15:51:39.302Z,18.09
2017-09-18T15:54:06.771Z,17.76
2017-09-18T15:56:34.260Z,17.98
2017-09-18T15:59:01.711Z,17.96
2017-09-18T16:01:29.215Z,17.95
2017-09-18T16:03:56.672Z,17.87
2017-09-18T16:06:24.139Z,17.83
2017-09-18T16:08:51.623Z,17.82
2017-09-18T16:11:19.078Z,17.80
2017-09-18T16:13:46.576Z,17.58
2017-09-18T16:16:14.686Z,17.38
2017-09-18T16:18:42.137Z,17.33
2017-09-18T16:21:09.624Z,17.35
2017-09-18T16:23:37.564Z,17.26
2017-09-18T16:26:05.078Z,17.23
2017-09-18T16:28:32.570Z,17.14
2017-09-18T16:31:00.260Z,17.02
2017-09-18T16:33:27.755Z,17.03
2017-09-18T16:35:55.205Z,16.99
2017-09-18T16:38:22.711Z,16.93
2017-09-18T16:40:50.178Z,16.90
2017-09-18T16:43:17.640Z,16.88
2017-09-18T16:45:45.162Z,16.93
2017-09-18T16:48:12.811Z,16.86
2017-09-18T16:50:40.304Z,16.85
2017-09-18T16:53:07.762Z,16.89
2017-09-18T16:55:35.461Z,16.91
2017-09-18T16:58:02.959Z,16.91
2017-09-18T17:00:30.549Z,16.81
2017-09-18T17:02:58.025Z,16.76
2017-09-18T17:05:25.481Z,16.72
2017-09-18T17:07:52.992Z,16.71
2017-09-18T17:10:20.817Z,16.69
2017-09-18T17:12:48.291Z,16.70
2017-09-18T17:15:15.788Z,16.68
2017-09-18T17:17:43.310Z,16.51
2017-09-18T17:20:10.840Z,16.49
2017-09-18T17:22:38.348Z,16.49
2017-09-18T17:25:05.838Z,16.45
2017-09-18T17:27:33.301Z,16.17
2017-09-18T17:30:00.805Z,16.24
2017-09-18T17:32:28.294Z,16.28
2017-09-18T17:34:55.760Z,16.25
2017-09-18T17:37:23.248Z,16.22
2017-09-18T17:39:50.716Z,16.21
2017-09-18T17:42:18.414Z,16.19
2017-09-18T17:44:45.895Z,16.18
2017-09-18T17:47:13.386Z,16.11
2017-09-18T17:49:40.874Z,16.01
2017-09-18T17:52:08.344Z,15.95
2017-09-18T17:54:35.843Z,15.85
2017-09-18T17:57:03.344Z,15.79
2017-09-18T17:59:30.853Z,15.67
2017-09-18T18:01:58.339Z,15.62
2017-09-18T18:04:25.860Z,15.57
2017-09-18T18:06:53.329Z,15.35
2017-09-18T18:09:20.815Z,15.41
2017-09-18T18:11:48.329Z,15.50
2017-09-18T18:14:15.808Z,15.49
2017-09-18T18:16:43.342Z,15.44
2017-09-18T18:19:10.853Z,15.40
2017-09-18T18:21:38.373Z,15.48
2017-09-18T18:24:05.848Z,15.46
2017-09-18T18:26:33.373Z,15.37
2017-09-18T18:29:00.858Z,15.40
2017-09-18T18:31:28.355Z,15.35
2017-09-18T18:34:01.254Z,15.32
2017-09-18T18:36:29.011Z,15.31
2017-09-18T18:38:57.178Z,15.21
2017-09-18T18:41:24.900Z,15.22
2017-09-18T18:43:53.492Z,15.21
2017-09-18T18:46:20.973Z,15.20
2017-09-18T18:48:48.711Z,15.17
2017-09-18T18:51:16.246Z,15.15
2017-09-18T18:53:43.748Z,15.16
2017-09-18T18:56:11.269Z,15.20
2017-09-18T18:58:38.740Z,15.22
2017-09-18T19:01:06.239Z,15.25
2017-09-18T19:03:33.727Z,15.23
2017-09-18T19:06:01.454Z,15.27
2017-09-18T19:08:29.020Z,15.26
2017-09-18T19:10:57.003Z,15.07
2017-09-18T19:13:24.527Z,15.01
2017-09-18T19:15:52.143Z,15.12
2017-09-18T19:18:19.666Z,15.13
2017-09-18T19:20:47.694Z,15.16
2017-09-18T19:23:15.195Z,15.19
2017-09-18T19:25:42.834Z,15.51
2017-09-18T19:28:10.307Z,15.35
2017-09-18T19:30:37.808Z,15.18
2017-09-18T19:33:05.292Z,15.04
2017-09-18T19:35:32.850Z,15.09
2017-09-18T19:38:00.363Z,15.00
2017-09-18T19:40:28.180Z,14.97
2017-09-18T19:42:56.111Z,14.97
2017-09-18T19:45:23.717Z,14.91
2017-09-18T19:47:51.910Z,14.86
2017-09-18T19:50:20.072Z,14.84
2017-09-18T19:52:48.530Z,14.91
2017-09-18T19:55:17.100Z,14.93
2017-09-18T19:57:45.173Z,14.92
2017-09-18T20:00:12.967Z,14.84
2017-09-18T20:02:40.771Z,14.88
2017-09-18T20:05:08.989Z,14.91
2017-09-18T20:07:41.614Z,14.85
2017-09-18T20:10:10.679Z,14.89
2017-09-18T20:12:47.369Z,14.72
2017-09-18T20:15:16.295Z,14.62
2017-09-18T20:17:46.229Z,14.53
2017-09-18T20:20:22.366Z,14.64
2017-09-18T20:22:54.609Z,14.71
2017-09-18T20:25:23.464Z,14.75
2017-09-18T20:27:53.034Z,14.65
2017-09-18T20:30:21.732Z,14.68
2017-09-18T20:32:49.712Z,14.75
2017-09-18T20:35:17.575Z,14.78
2017-09-18T20:37:46.563Z,14.81
2017-09-18T20:40:16.880Z,14.64
2017-09-18T20:42:45.996Z,14.76
2017-09-18T20:45:14.477Z,14.54
2017-09-18T20:47:42.841Z,14.58
2017-09-18T20:50:11.423Z,14.57
2017-09-18T20:52:40.865Z,14.48
2017-09-18T20:55:09.786Z,14.51
2017-09-18T20:57:38.593Z,14.53
2017-09-18T21:00:06.251Z,14.51
2017-09-18T21:02:35.319Z,14.53
2017-09-18T21:05:04.993Z,14.49
2017-09-18T21:07:34.237Z,14.46
2017-09-18T21:10:01.887Z,14.48
2017-09-18T21:12:33.218Z,14.49
2017-09-18T21:15:02.246Z,14.49
2017-09-18T21:17:30.443Z,14.48
2017-09-18T21:19:59.274Z,14.49
2017-09-18T21:22:27.678Z,14.53
2017-09-18T21:24:55.591Z,14.53
2017-09-18T21:27:24.276Z,14.40
2017-09-18T21:29:53.378Z,14.41
2017-09-18T21:32:22.061Z,14.37
2017-09-18T21:34:50.321Z,14.36
2017-09-18T21:37:18.143Z,14.33
2017-09-18T21:39:47.016Z,14.31
2017-09-18T21:42:15.052Z,14.23
2017-09-18T21:44:43.161Z,14.19
2017-09-18T21:47:11.438Z,14.14
2017-09-18T21:49:40.845Z,14.07
2017-09-18T21:52:09.027Z,14.05
2017-09-18T21:54:38.517Z,14.00
2017-09-18T21:57:06.554Z,14.00
2017-09-18T21:59:34.592Z,13.97
2017-09-18T22:02:02.589Z,13.89
2017-09-18T22:04:31.597Z,13.84
2017-09-18T22:07:00.208Z,13.83
2017-09-18T22:09:28.477Z,13.86
2017-09-18T22:12:15.426Z,13.77
2017-09-18T22:14:43.544Z,13.63
2017-09-18T22:17:13.189Z,13.58
2017-09-18T22:19:40.758Z,13.53
2017-09-18T22:22:09.551Z,13.47
2017-09-18T22:24:37.621Z,13.45
2017-09-18T22:27:05.938Z,13.40
2017-09-18T22:29:36.495Z,13.35
2017-09-18T22:32:06.393Z,13.25
2017-09-18T22:34:39.450Z,13.27
2017-09-18T22:37:10.161Z,13.23
2017-09-18T22:39:41.364Z,13.16
2017-09-18T22:42:10.039Z,12.82
2017-09-18T22:44:38.469Z,12.97
2017-09-18T22:47:07.130Z,13.08
2017-09-18T22:49:36.161Z,13.07
2017-09-18T22:52:08.630Z,13.10
2017-09-18T22:54:38.792Z,13.08
2017-09-18T22:57:07.993Z,13.09
2017-09-18T22:59:37.417Z,13.05
2017-09-18T23:02:07.735Z,13.04
2017-09-18T23:04:37.548Z,13.03
2017-09-18T23:07:07.487Z,12.97
2017-09-18T23:09:36.654Z,12.98
2017-09-18T23:12:05.092Z,12.96
2017-09-18T23:14:32.684Z,12.93
2017-09-18T23:17:01.126Z,12.99
2017-09-18T23:19:30.117Z,13.01
2017-09-18T23:21:59.214Z,13.00
2017-09-18T23:24:28.542Z,12.97
2017-09-18T23:26:58.910Z,12.93
2017-09-18T23:29:32.746Z,13.03
2017-09-18T23:32:06.853Z,12.74
2017-09-18T23:34:35.368Z,12.84
2017-09-18T23:37:04.340Z,12.85
2017-09-18T23:39:33.726Z,12.88
2017-09-18T23:42:08.679Z,12.71
2017-09-18T23:44:39.234Z,12.50
2017-09-18T23:47:08.484Z,12.89
2017-09-18T23:49:37.764Z,12.75
2017-09-18T23:52:11.342Z,12.88
2017-09-18T23:54:41.562Z,12.92
2017-09-18T23:57:09.880Z,12.88
2017-09-18T23:59:39.421Z,12.94
